Hauptseite
METAR-TAF:

METAR-TAF

Flughäfen :

Flughafen Augsburg

Augsburg, Deutschland

Breite: 48-26N, Länge: 010-56E, Höhe: 461 m

Beobachtung

Neuester Wetterbericht von vor 37 Minuten, um 14:50 UTC
Wind 8 kt aus Nord/Nordwest, variierte zwischen Nordwest und Nord/Nordost
Temperatur 20°C
Luftfeuchtigkeit 49%
Luftdruck 1023 hPa
Sichtweite 10 km oder mehr
Leicht bewölkt in der Höhe von 4700 ft
Aufgelockert bewölkt in der Höhe von 6700 ft

METAR: EDMA 111450Z 34008KT 310V020 9999 FEW047 SCT067 20/09 Q1023

Zeit: 17:27 (15:27 UTC)

Prognose

Neuester Wetterbericht von vor 1 Stunde und 27 Minuten, um 14:00 UTC
Gültige Prognose vom 11 um 15 UTC bis 11 um 24 UTC
Wind 5 kt aus Nord
Sichtweite 10 km oder mehr
Durchbrochene Bewölkung in der Höhe von 4500 ft
Übergehend zu
vom 11 um 18 UTC bis 11 um 20 UTC
Wind 2 kt aus unterschiedlichen Richtungen

TAF: EDMA 111400Z 1115/1124 36005KT 9999 BKN045 BECMG 1118/1120 VRB02KT

Wetterbeobachtungen und Prognosen von mehr als 4000 Flughäfen (METAR und TAF Bericht).

Die verfügbaren Stationen werden durch gelbe und rote Markierungen auf der Karte dargestellt.

Führen Sie die Maus auf sie, um den Namen der Station zu sehen.

Darauf klicken, um die Beobachtung von Wetterbeobachtungen und Prognosen zu sehen.

Um die Karte zu ändern : klicken Sie auf den grünen Tasten mit einem schwarzen Kreuz Zum Vergrößern, auf den grünen Button mit einem Gedankenstrich zu verkleinern, oder auf die grünen Pfeile für benachbarte Karten.


METAR-TAF: